Country
Station

 

Weather  for  Johan A. Pengel  -  Suriname    Suriname

  
25 °C (77 °F)
    
 
 

Current METAR for Johan A. Pengel is :

SMJP 111900Z 00000KT 9999 SCT008 BKN020 25/24 Q1013 NOSIG

 

This is a report for Johan A. Pengel - Suriname.
 
The report was made 27 minutes ago, at 19:00 UTC .
The wind was calm.
 
The temperature was 25 °C (77 °F), with a dew-point at 24 °C (75 °F).
The temperature felt like 26 °C (78 °F).
 
The atmospheric pressure was 1013 hPa (29.91 inHg).
The relative humidity was 94.2%.
 
There were scattered clouds at a height of 244 meters (800 feet) and broken clouds at a height of 610 meters (2000 feet).
 
The overall visibility was greater than 10 kilometers (6.2 miles).
 

 
 
 
 

Country :   A   B   C   D   E   F   G   H   I   J   K   L   M   N   O   P   Q   R   S   T   U   V   W   Y   Z

 

Site Info  |  Disclaimer  |  Credits  |  Privacy
Contact us  |  Add to favorites
© 2013-2018 METARs - All rights reserved